sensor_id;sensor_type;location;lat;lon;timestamp;temperature;humidity
15095;DHT22;7648;52.264;9.632;2023-02-27T00:03:08;-1.30;99.90
15095;DHT22;7648;52.264;9.632;2023-02-27T00:07:11;-1.30;99.90
15095;DHT22;7648;52.264;9.632;2023-02-27T00:11:13;-1.30;99.90
15095;DHT22;7648;52.264;9.632;2023-02-27T00:15:17;-1.30;99.90
15095;DHT22;7648;52.264;9.632;2023-02-27T00:19:19;-1.30;99.90
15095;DHT22;7648;52.264;9.632;2023-02-27T00:23:23;-1.30;99.90
15095;DHT22;7648;52.264;9.632;2023-02-27T00:27:25;-1.40;99.90
15095;DHT22;7648;52.264;9.632;2023-02-27T00:31:27;-1.40;99.90
15095;DHT22;7648;52.264;9.632;2023-02-27T00:35:29;-1.40;99.90
15095;DHT22;7648;52.264;9.632;2023-02-27T00:39:32;-1.40;99.90
15095;DHT22;7648;52.264;9.632;2023-02-27T00:43:34;-1.40;99.90
15095;DHT22;7648;52.264;9.632;2023-02-27T00:47:36;-1.50;99.90
15095;DHT22;7648;52.264;9.632;2023-02-27T00:51:38;-1.50;99.90
15095;DHT22;7648;52.264;9.632;2023-02-27T00:55:41;-1.50;99.90
15095;DHT22;7648;52.264;9.632;2023-02-27T00:59:43;-1.50;99.90
15095;DHT22;7648;52.264;9.632;2023-02-27T01:03:47;-1.60;99.90
15095;DHT22;7648;52.264;9.632;2023-02-27T01:07:51;-1.50;99.90
15095;DHT22;7648;52.264;9.632;2023-02-27T01:11:54;-1.60;99.90
15095;DHT22;7648;52.264;9.632;2023-02-27T01:15:57;-1.80;99.90
15095;DHT22;7648;52.264;9.632;2023-02-27T01:19:59;-1.80;99.90
15095;DHT22;7648;52.264;9.632;2023-02-27T01:24:01;-1.70;99.90
15095;DHT22;7648;52.264;9.632;2023-02-27T01:28:04;-1.70;99.90
15095;DHT22;7648;52.264;9.632;2023-02-27T01:32:06;-1.70;99.90
15095;DHT22;7648;52.264;9.632;2023-02-27T01:36:09;-1.70;99.90
15095;DHT22;7648;52.264;9.632;2023-02-27T01:40:12;-1.70;99.90
15095;DHT22;7648;52.264;9.632;2023-02-27T01:44:15;-1.70;99.90
15095;DHT22;7648;52.264;9.632;2023-02-27T01:48:19;-1.80;99.90
15095;DHT22;7648;52.264;9.632;2023-02-27T01:52:23;-1.80;99.90
15095;DHT22;7648;52.264;9.632;2023-02-27T01:56:27;-1.80;99.90
15095;DHT22;7648;52.264;9.632;2023-02-27T02:00:32;-1.80;99.90
15095;DHT22;7648;52.264;9.632;2023-02-27T02:04:37;-1.80;99.90
15095;DHT22;7648;52.264;9.632;2023-02-27T02:08:41;-1.80;99.90
15095;DHT22;7648;52.264;9.632;2023-02-27T02:12:45;-1.80;99.90
15095;DHT22;7648;52.264;9.632;2023-02-27T02:17:23;-1.80;99.90
15095;DHT22;7648;52.264;9.632;2023-02-27T02:21:52;-1.90;99.90
15095;DHT22;7648;52.264;9.632;2023-02-27T02:26:16;-1.90;99.90
15095;DHT22;7648;52.264;9.632;2023-02-27T02:40:11;-1.90;99.90
15095;DHT22;7648;52.264;9.632;2023-02-27T02:44:22;-1.90;99.90
15095;DHT22;7648;52.264;9.632;2023-02-27T02:48:31;-1.90;99.90
15095;DHT22;7648;52.264;9.632;2023-02-27T02:52:44;-2.00;99.90
15095;DHT22;7648;52.264;9.632;2023-02-27T02:56:58;-2.00;99.90
15095;DHT22;7648;52.264;9.632;2023-02-27T03:01:07;-2.00;99.90
15095;DHT22;7648;52.264;9.632;2023-02-27T03:05:16;-2.10;99.90
15095;DHT22;7648;52.264;9.632;2023-02-27T03:09:30;-2.10;99.90
15095;DHT22;7648;52.264;9.632;2023-02-27T03:13:39;-2.10;99.90
15095;DHT22;7648;52.264;9.632;2023-02-27T03:17:46;-2.10;99.90
15095;DHT22;7648;52.264;9.632;2023-02-27T03:21:54;-2.10;99.90
15095;DHT22;7648;52.264;9.632;2023-02-27T03:25:57;-2.10;99.90
15095;DHT22;7648;52.264;9.632;2023-02-27T03:30:06;-2.10;99.90
15095;DHT22;7648;52.264;9.632;2023-02-27T03:34:15;-2.20;99.90
15095;DHT22;7648;52.264;9.632;2023-02-27T03:38:23;-2.20;99.90
15095;DHT22;7648;52.264;9.632;2023-02-27T03:42:31;-2.20;99.90
15095;DHT22;7648;52.264;9.632;2023-02-27T03:46:45;-2.20;99.90
15095;DHT22;7648;52.264;9.632;2023-02-27T03:50:48;-2.30;99.90
15095;DHT22;7648;52.264;9.632;2023-02-27T03:54:55;-2.30;99.90
15095;DHT22;7648;52.264;9.632;2023-02-27T03:58:59;-2.30;99.90
15095;DHT22;7648;52.264;9.632;2023-02-27T04:03:04;-2.30;99.90
15095;DHT22;7648;52.264;9.632;2023-02-27T04:07:11;-2.30;99.90
15095;DHT22;7648;52.264;9.632;2023-02-27T04:11:39;-2.40;99.90
15095;DHT22;7648;52.264;9.632;2023-02-27T04:16:02;-2.30;99.90
15095;DHT22;7648;52.264;9.632;2023-02-27T04:20:18;-2.30;99.90
15095;DHT22;7648;52.264;9.632;2023-02-27T04:24:31;-2.30;99.90
15095;DHT22;7648;52.264;9.632;2023-02-27T04:28:40;-2.30;99.90
15095;DHT22;7648;52.264;9.632;2023-02-27T04:32:50;-2.30;99.90
15095;DHT22;7648;52.264;9.632;2023-02-27T04:36:57;-2.40;99.90
15095;DHT22;7648;52.264;9.632;2023-02-27T04:41:04;-2.40;99.90
15095;DHT22;7648;52.264;9.632;2023-02-27T04:45:11;-2.40;99.90
15095;DHT22;7648;52.264;9.632;2023-02-27T04:49:16;-2.40;99.90
15095;DHT22;7648;52.264;9.632;2023-02-27T04:53:25;-2.40;99.90
15095;DHT22;7648;52.264;9.632;2023-02-27T04:57:31;-2.30;99.90
15095;DHT22;7648;52.264;9.632;2023-02-27T05:01:37;-2.30;99.90
15095;DHT22;7648;52.264;9.632;2023-02-27T05:05:42;-2.20;99.90
15095;DHT22;7648;52.264;9.632;2023-02-27T05:09:49;-2.20;99.90
15095;DHT22;7648;52.264;9.632;2023-02-27T05:13:55;-2.20;99.90
15095;DHT22;7648;52.264;9.632;2023-02-27T05:18:01;-2.10;99.90
15095;DHT22;7648;52.264;9.632;2023-02-27T05:22:11;-2.10;99.90
15095;DHT22;7648;52.264;9.632;2023-02-27T05:26:17;-2.10;99.90
15095;DHT22;7648;52.264;9.632;2023-02-27T05:30:23;-2.20;99.90
15095;DHT22;7648;52.264;9.632;2023-02-27T05:34:31;-2.20;99.90
15095;DHT22;7648;52.264;9.632;2023-02-27T05:38:39;-2.20;99.90
15095;DHT22;7648;52.264;9.632;2023-02-27T05:42:44;-2.20;99.90
15095;DHT22;7648;52.264;9.632;2023-02-27T05:46:52;-2.30;99.90
15095;DHT22;7648;52.264;9.632;2023-02-27T05:50:57;-2.30;99.90
15095;DHT22;7648;52.264;9.632;2023-02-27T05:55:01;-2.30;99.90
15095;DHT22;7648;52.264;9.632;2023-02-27T05:59:08;-2.20;99.90
15095;DHT22;7648;52.264;9.632;2023-02-27T06:03:11;-2.20;99.90
15095;DHT22;7648;52.264;9.632;2023-02-27T06:07:13;-2.10;99.90
15095;DHT22;7648;52.264;9.632;2023-02-27T06:11:15;-2.00;99.90
15095;DHT22;7648;52.264;9.632;2023-02-27T06:15:19;-2.00;99.90
15095;DHT22;7648;52.264;9.632;2023-02-27T06:19:22;-1.90;99.90
15095;DHT22;7648;52.264;9.632;2023-02-27T06:23:24;-1.80;99.90
15095;DHT22;7648;52.264;9.632;2023-02-27T06:27:26;-1.70;99.90
15095;DHT22;7648;52.264;9.632;2023-02-27T06:31:29;-1.70;99.90
15095;DHT22;7648;52.264;9.632;2023-02-27T06:35:31;-1.60;99.90
15095;DHT22;7648;52.264;9.632;2023-02-27T06:39:33;-1.50;99.90
15095;DHT22;7648;52.264;9.632;2023-02-27T06:43:35;-1.40;99.90
15095;DHT22;7648;52.264;9.632;2023-02-27T06:47:39;-1.40;99.90
15095;DHT22;7648;52.264;9.632;2023-02-27T06:51:41;-1.30;99.90
15095;DHT22;7648;52.264;9.632;2023-02-27T06:55:43;-1.20;99.90
15095;DHT22;7648;52.264;9.632;2023-02-27T06:59:45;-1.10;99.90
15095;DHT22;7648;52.264;9.632;2023-02-27T07:03:48;-1.10;99.90
15095;DHT22;7648;52.264;9.632;2023-02-27T07:07:50;-1.00;99.90
15095;DHT22;7648;52.264;9.632;2023-02-27T07:11:52;-1.00;99.90
15095;DHT22;7648;52.264;9.632;2023-02-27T07:15:54;-1.00;99.90
15095;DHT22;7648;52.264;9.632;2023-02-27T07:19:57;-1.00;99.90
15095;DHT22;7648;52.264;9.632;2023-02-27T07:23:59;-1.00;99.90
15095;DHT22;7648;52.264;9.632;2023-02-27T07:28:02;-1.00;99.90
15095;DHT22;7648;52.264;9.632;2023-02-27T07:32:04;-0.90;99.90
15095;DHT22;7648;52.264;9.632;2023-02-27T07:36:08;-0.90;99.90
15095;DHT22;7648;52.264;9.632;2023-02-27T07:40:11;-0.80;99.90
15095;DHT22;7648;52.264;9.632;2023-02-27T07:44:14;-0.80;99.90
15095;DHT22;7648;52.264;9.632;2023-02-27T07:48:15;-0.70;99.90
15095;DHT22;7648;52.264;9.632;2023-02-27T07:52:19;-0.70;99.90
15095;DHT22;7648;52.264;9.632;2023-02-27T07:56:21;-0.60;99.90
15095;DHT22;7648;52.264;9.632;2023-02-27T08:00:23;-0.50;99.90
15095;DHT22;7648;52.264;9.632;2023-02-27T08:04:24;-0.50;99.90
15095;DHT22;7648;52.264;9.632;2023-02-27T08:08:28;-0.40;99.90
15095;DHT22;7648;52.264;9.632;2023-02-27T08:12:30;-0.30;99.90
15095;DHT22;7648;52.264;9.632;2023-02-27T08:16:32;-0.30;99.90
15095;DHT22;7648;52.264;9.632;2023-02-27T08:20:33;-0.20;99.90
15095;DHT22;7648;52.264;9.632;2023-02-27T08:24:38;-0.20;99.90
15095;DHT22;7648;52.264;9.632;2023-02-27T08:28:40;-0.20;99.90
15095;DHT22;7648;52.264;9.632;2023-02-27T08:32:43;-0.10;99.90
15095;DHT22;7648;52.264;9.632;2023-02-27T08:36:45;0.00;99.90
15095;DHT22;7648;52.264;9.632;2023-02-27T08:40:50;0.00;99.90
15095;DHT22;7648;52.264;9.632;2023-02-27T08:44:53;0.10;99.90
15095;DHT22;7648;52.264;9.632;2023-02-27T08:48:56;0.20;99.90
15095;DHT22;7648;52.264;9.632;2023-02-27T08:52:57;0.30;99.90
15095;DHT22;7648;52.264;9.632;2023-02-27T08:57:01;0.30;99.90
15095;DHT22;7648;52.264;9.632;2023-02-27T09:01:03;0.40;99.90
15095;DHT22;7648;52.264;9.632;2023-02-27T09:05:06;0.50;99.90
15095;DHT22;7648;52.264;9.632;2023-02-27T09:09:07;0.60;99.90
15095;DHT22;7648;52.264;9.632;2023-02-27T09:13:11;0.70;99.90
15095;DHT22;7648;52.264;9.632;2023-02-27T09:17:12;0.70;99.90
15095;DHT22;7648;52.264;9.632;2023-02-27T09:21:15;0.70;99.90
15095;DHT22;7648;52.264;9.632;2023-02-27T09:25:17;0.80;99.90
15095;DHT22;7648;52.264;9.632;2023-02-27T09:29:20;0.90;99.90
15095;DHT22;7648;52.264;9.632;2023-02-27T09:33:23;0.90;99.90
15095;DHT22;7648;52.264;9.632;2023-02-27T09:37:26;0.90;99.90
15095;DHT22;7648;52.264;9.632;2023-02-27T09:41:45;1.10;99.90
15095;DHT22;7648;52.264;9.632;2023-02-27T09:45:53;1.10;99.90
15095;DHT22;7648;52.264;9.632;2023-02-27T09:49:58;1.20;99.90
15095;DHT22;7648;52.264;9.632;2023-02-27T09:54:01;1.40;99.90
15095;DHT22;7648;52.264;9.632;2023-02-27T09:58:12;1.40;99.90
15095;DHT22;7648;52.264;9.632;2023-02-27T10:02:25;1.50;99.90
15095;DHT22;7648;52.264;9.632;2023-02-27T10:06:35;1.50;99.90
15095;DHT22;7648;52.264;9.632;2023-02-27T10:10:43;1.50;99.90
15095;DHT22;7648;52.264;9.632;2023-02-27T10:14:49;1.70;99.90
15095;DHT22;7648;52.264;9.632;2023-02-27T10:18:56;1.80;99.90
15095;DHT22;7648;52.264;9.632;2023-02-27T10:23:02;1.90;99.90
15095;DHT22;7648;52.264;9.632;2023-02-27T10:27:06;2.40;99.90
15095;DHT22;7648;52.264;9.632;2023-02-27T10:31:16;3.40;99.90
15095;DHT22;7648;52.264;9.632;2023-02-27T10:35:27;4.20;99.90
15095;DHT22;7648;52.264;9.632;2023-02-27T10:39:34;4.40;99.90
15095;DHT22;7648;52.264;9.632;2023-02-27T10:43:42;4.00;99.90
15095;DHT22;7648;52.264;9.632;2023-02-27T10:47:44;3.70;99.90
15095;DHT22;7648;52.264;9.632;2023-02-27T10:52:05;3.40;99.90
15095;DHT22;7648;52.264;9.632;2023-02-27T10:56:15;3.60;99.90
15095;DHT22;7648;52.264;9.632;2023-02-27T11:00:26;3.90;99.90
15095;DHT22;7648;52.264;9.632;2023-02-27T11:04:33;3.80;99.90
15095;DHT22;7648;52.264;9.632;2023-02-27T11:08:38;3.70;99.90
15095;DHT22;7648;52.264;9.632;2023-02-27T11:12:41;3.50;99.90
15095;DHT22;7648;52.264;9.632;2023-02-27T11:16:47;3.50;99.90
15095;DHT22;7648;52.264;9.632;2023-02-27T11:20:50;3.80;99.90
15095;DHT22;7648;52.264;9.632;2023-02-27T11:25:13;3.90;99.90
15095;DHT22;7648;52.264;9.632;2023-02-27T11:29:19;4.30;99.90
15095;DHT22;7648;52.264;9.632;2023-02-27T11:33:21;4.90;99.90
15095;DHT22;7648;52.264;9.632;2023-02-27T11:37:26;5.40;99.90
15095;DHT22;7648;52.264;9.632;2023-02-27T11:41:31;5.70;99.90
15095;DHT22;7648;52.264;9.632;2023-02-27T11:45:35;5.60;99.90
15095;DHT22;7648;52.264;9.632;2023-02-27T11:49:48;5.80;99.90
15095;DHT22;7648;52.264;9.632;2023-02-27T11:54:09;6.00;99.90
15095;DHT22;7648;52.264;9.632;2023-02-27T11:58:18;6.20;99.90
15095;DHT22;7648;52.264;9.632;2023-02-27T12:02:24;6.30;99.90
15095;DHT22;7648;52.264;9.632;2023-02-27T12:06:31;6.20;99.90
15095;DHT22;7648;52.264;9.632;2023-02-27T12:10:43;6.30;99.90
15095;DHT22;7648;52.264;9.632;2023-02-27T12:14:54;6.60;99.90
15095;DHT22;7648;52.264;9.632;2023-02-27T12:19:03;6.70;99.90
15095;DHT22;7648;52.264;9.632;2023-02-27T12:23:16;6.80;99.90
15095;DHT22;7648;52.264;9.632;2023-02-27T12:27:21;6.50;99.90
15095;DHT22;7648;52.264;9.632;2023-02-27T12:31:42;6.40;99.90
15095;DHT22;7648;52.264;9.632;2023-02-27T12:35:52;6.40;99.90
15095;DHT22;7648;52.264;9.632;2023-02-27T12:39:58;6.60;99.90
15095;DHT22;7648;52.264;9.632;2023-02-27T12:44:10;6.70;99.90
15095;DHT22;7648;52.264;9.632;2023-02-27T12:48:26;6.70;99.90
15095;DHT22;7648;52.264;9.632;2023-02-27T12:52:40;6.80;99.90
15095;DHT22;7648;52.264;9.632;2023-02-27T12:56:55;6.80;99.90
15095;DHT22;7648;52.264;9.632;2023-02-27T13:01:06;6.80;99.90
15095;DHT22;7648;52.264;9.632;2023-02-27T13:05:30;6.60;99.90
15095;DHT22;7648;52.264;9.632;2023-02-27T13:09:38;6.60;99.90
15095;DHT22;7648;52.264;9.632;2023-02-27T13:13:45;6.80;99.90
15095;DHT22;7648;52.264;9.632;2023-02-27T13:17:52;6.90;99.90
15095;DHT22;7648;52.264;9.632;2023-02-27T13:22:01;6.70;99.90
15095;DHT22;7648;52.264;9.632;2023-02-27T13:26:12;6.70;99.90
15095;DHT22;7648;52.264;9.632;2023-02-27T13:30:23;6.90;99.90
15095;DHT22;7648;52.264;9.632;2023-02-27T13:34:30;7.10;99.90
15095;DHT22;7648;52.264;9.632;2023-02-27T13:38:43;7.10;99.90
15095;DHT22;7648;52.264;9.632;2023-02-27T13:43:00;6.90;99.90
15095;DHT22;7648;52.264;9.632;2023-02-27T13:51:52;6.50;99.90
15095;DHT22;7648;52.264;9.632;2023-02-27T13:56:17;6.50;99.90
15095;DHT22;7648;52.264;9.632;2023-02-27T14:00:21;6.50;99.90
15095;DHT22;7648;52.264;9.632;2023-02-27T14:04:27;6.50;99.90
15095;DHT22;7648;52.264;9.632;2023-02-27T14:08:37;6.50;99.90
15095;DHT22;7648;52.264;9.632;2023-02-27T14:12:48;6.30;99.90
15095;DHT22;7648;52.264;9.632;2023-02-27T14:16:55;6.20;99.90
15095;DHT22;7648;52.264;9.632;2023-02-27T14:20:58;5.90;99.90
15095;DHT22;7648;52.264;9.632;2023-02-27T14:25:02;5.80;99.90
15095;DHT22;7648;52.264;9.632;2023-02-27T14:29:15;5.70;99.90
15095;DHT22;7648;52.264;9.632;2023-02-27T14:33:20;6.00;99.90
15095;DHT22;7648;52.264;9.632;2023-02-27T14:37:24;6.40;99.90
15095;DHT22;7648;52.264;9.632;2023-02-27T14:41:35;6.40;99.90
15095;DHT22;7648;52.264;9.632;2023-02-27T14:45:40;6.40;99.90
15095;DHT22;7648;52.264;9.632;2023-02-27T14:49:44;6.20;99.90
15095;DHT22;7648;52.264;9.632;2023-02-27T14:53:58;6.10;99.90
15095;DHT22;7648;52.264;9.632;2023-02-27T14:58:08;5.90;99.90
15095;DHT22;7648;52.264;9.632;2023-02-27T15:02:17;5.70;99.90
15095;DHT22;7648;52.264;9.632;2023-02-27T15:06:34;5.70;99.90
15095;DHT22;7648;52.264;9.632;2023-02-27T15:10:36;5.60;99.90
15095;DHT22;7648;52.264;9.632;2023-02-27T15:14:41;5.60;99.90
15095;DHT22;7648;52.264;9.632;2023-02-27T15:18:49;5.60;99.90
15095;DHT22;7648;52.264;9.632;2023-02-27T15:22:51;5.50;99.90
15095;DHT22;7648;52.264;9.632;2023-02-27T15:26:55;5.50;99.90
15095;DHT22;7648;52.264;9.632;2023-02-27T15:30:57;5.40;99.90
15095;DHT22;7648;52.264;9.632;2023-02-27T15:35:03;5.30;99.90
15095;DHT22;7648;52.264;9.632;2023-02-27T15:39:13;5.30;99.90
15095;DHT22;7648;52.264;9.632;2023-02-27T15:43:16;5.30;99.90
15095;DHT22;7648;52.264;9.632;2023-02-27T15:47:27;5.30;99.90
15095;DHT22;7648;52.264;9.632;2023-02-27T15:51:30;5.40;99.90
15095;DHT22;7648;52.264;9.632;2023-02-27T15:55:34;5.50;99.90
15095;DHT22;7648;52.264;9.632;2023-02-27T15:59:39;5.80;99.90
15095;DHT22;7648;52.264;9.632;2023-02-27T16:03:44;6.00;99.90
15095;DHT22;7648;52.264;9.632;2023-02-27T16:07:49;5.90;99.90
15095;DHT22;7648;52.264;9.632;2023-02-27T16:12:09;5.80;99.90
15095;DHT22;7648;52.264;9.632;2023-02-27T16:16:25;5.60;99.90
15095;DHT22;7648;52.264;9.632;2023-02-27T16:20:37;5.50;99.90
15095;DHT22;7648;52.264;9.632;2023-02-27T16:24:41;5.40;99.90
15095;DHT22;7648;52.264;9.632;2023-02-27T16:28:49;5.30;99.90
15095;DHT22;7648;52.264;9.632;2023-02-27T16:32:58;5.20;99.90
15095;DHT22;7648;52.264;9.632;2023-02-27T16:37:02;5.00;99.90
15095;DHT22;7648;52.264;9.632;2023-02-27T16:41:07;4.90;99.90
15095;DHT22;7648;52.264;9.632;2023-02-27T16:45:14;4.80;99.90
15095;DHT22;7648;52.264;9.632;2023-02-27T16:49:22;4.70;99.90
15095;DHT22;7648;52.264;9.632;2023-02-27T16:53:24;4.60;99.90
15095;DHT22;7648;52.264;9.632;2023-02-27T16:57:27;4.50;99.90
15095;DHT22;7648;52.264;9.632;2023-02-27T17:01:29;4.50;99.90
15095;DHT22;7648;52.264;9.632;2023-02-27T17:05:30;4.40;99.90
15095;DHT22;7648;52.264;9.632;2023-02-27T17:09:32;4.30;99.90
15095;DHT22;7648;52.264;9.632;2023-02-27T17:13:36;4.30;99.90
15095;DHT22;7648;52.264;9.632;2023-02-27T17:17:38;4.20;99.90
15095;DHT22;7648;52.264;9.632;2023-02-27T17:21:40;4.10;99.90
15095;DHT22;7648;52.264;9.632;2023-02-27T17:25:42;4.10;99.90
15095;DHT22;7648;52.264;9.632;2023-02-27T17:29:45;4.00;99.90
15095;DHT22;7648;52.264;9.632;2023-02-27T17:33:47;3.90;99.90
15095;DHT22;7648;52.264;9.632;2023-02-27T17:37:49;3.80;99.90
15095;DHT22;7648;52.264;9.632;2023-02-27T17:41:51;3.80;99.90
15095;DHT22;7648;52.264;9.632;2023-02-27T17:45:55;3.70;99.90
15095;DHT22;7648;52.264;9.632;2023-02-27T17:49:57;3.60;99.90
15095;DHT22;7648;52.264;9.632;2023-02-27T17:54:01;3.50;99.90
15095;DHT22;7648;52.264;9.632;2023-02-27T17:58:03;3.40;99.90
15095;DHT22;7648;52.264;9.632;2023-02-27T18:02:08;3.40;99.90
15095;DHT22;7648;52.264;9.632;2023-02-27T18:06:10;3.40;99.90
15095;DHT22;7648;52.264;9.632;2023-02-27T18:10:12;3.30;99.90
15095;DHT22;7648;52.264;9.632;2023-02-27T18:14:15;3.20;99.90
15095;DHT22;7648;52.264;9.632;2023-02-27T18:18:19;3.10;99.90
15095;DHT22;7648;52.264;9.632;2023-02-27T18:22:21;3.10;99.90
15095;DHT22;7648;52.264;9.632;2023-02-27T18:26:25;3.10;99.90
15095;DHT22;7648;52.264;9.632;2023-02-27T18:30:28;3.10;99.90
15095;DHT22;7648;52.264;9.632;2023-02-27T18:34:31;3.10;99.90
15095;DHT22;7648;52.264;9.632;2023-02-27T18:38:33;3.00;99.90
15095;DHT22;7648;52.264;9.632;2023-02-27T18:42:35;3.10;99.90
15095;DHT22;7648;52.264;9.632;2023-02-27T18:46:37;3.10;99.90
15095;DHT22;7648;52.264;9.632;2023-02-27T18:50:41;3.10;99.90
15095;DHT22;7648;52.264;9.632;2023-02-27T18:54:43;3.10;99.90
15095;DHT22;7648;52.264;9.632;2023-02-27T18:58:45;3.10;99.90
15095;DHT22;7648;52.264;9.632;2023-02-27T19:02:47;3.20;99.90
15095;DHT22;7648;52.264;9.632;2023-02-27T19:06:50;3.10;99.90
15095;DHT22;7648;52.264;9.632;2023-02-27T19:10:52;3.10;99.90
15095;DHT22;7648;52.264;9.632;2023-02-27T19:14:54;3.10;99.90
15095;DHT22;7648;52.264;9.632;2023-02-27T19:18:57;3.00;99.90
15095;DHT22;7648;52.264;9.632;2023-02-27T19:23:00;3.00;99.90
15095;DHT22;7648;52.264;9.632;2023-02-27T19:27:02;2.90;99.90
15095;DHT22;7648;52.264;9.632;2023-02-27T19:31:07;2.80;99.90
15095;DHT22;7648;52.264;9.632;2023-02-27T19:35:09;2.70;99.90
15095;DHT22;7648;52.264;9.632;2023-02-27T19:39:15;2.60;99.90
15095;DHT22;7648;52.264;9.632;2023-02-27T19:43:16;2.50;99.90
15095;DHT22;7648;52.264;9.632;2023-02-27T19:47:18;2.40;99.90
15095;DHT22;7648;52.264;9.632;2023-02-27T19:51:20;2.30;99.90
15095;DHT22;7648;52.264;9.632;2023-02-27T19:55:24;2.30;99.90
15095;DHT22;7648;52.264;9.632;2023-02-27T19:59:27;2.30;99.90
15095;DHT22;7648;52.264;9.632;2023-02-27T20:03:29;2.30;99.90
15095;DHT22;7648;52.264;9.632;2023-02-27T20:07:31;2.30;99.90
15095;DHT22;7648;52.264;9.632;2023-02-27T20:11:34;2.30;99.90
15095;DHT22;7648;52.264;9.632;2023-02-27T20:15:36;2.20;99.90
15095;DHT22;7648;52.264;9.632;2023-02-27T20:19:38;2.20;99.90
15095;DHT22;7648;52.264;9.632;2023-02-27T20:23:42;2.10;99.90
15095;DHT22;7648;52.264;9.632;2023-02-27T20:27:45;1.90;99.90
15095;DHT22;7648;52.264;9.632;2023-02-27T20:31:49;1.80;99.90
15095;DHT22;7648;52.264;9.632;2023-02-27T20:35:52;1.80;99.90
15095;DHT22;7648;52.264;9.632;2023-02-27T20:39:53;1.70;99.90
15095;DHT22;7648;52.264;9.632;2023-02-27T20:43:57;1.70;99.90
15095;DHT22;7648;52.264;9.632;2023-02-27T20:47:59;1.70;99.90
15095;DHT22;7648;52.264;9.632;2023-02-27T20:52:01;1.70;99.90
15095;DHT22;7648;52.264;9.632;2023-02-27T20:56:03;1.70;99.90
15095;DHT22;7648;52.264;9.632;2023-02-27T21:00:09;1.60;99.90
15095;DHT22;7648;52.264;9.632;2023-02-27T21:04:11;1.60;99.90
15095;DHT22;7648;52.264;9.632;2023-02-27T21:08:13;1.60;99.90
15095;DHT22;7648;52.264;9.632;2023-02-27T21:12:16;1.60;99.90
15095;DHT22;7648;52.264;9.632;2023-02-27T21:16:19;1.60;99.90
15095;DHT22;7648;52.264;9.632;2023-02-27T21:20:21;1.50;99.90
15095;DHT22;7648;52.264;9.632;2023-02-27T21:24:23;1.50;99.90
15095;DHT22;7648;52.264;9.632;2023-02-27T21:28:25;1.30;99.90
15095;DHT22;7648;52.264;9.632;2023-02-27T21:32:28;1.30;99.90
15095;DHT22;7648;52.264;9.632;2023-02-27T21:36:31;1.20;99.90
15095;DHT22;7648;52.264;9.632;2023-02-27T21:40:34;1.10;99.90
15095;DHT22;7648;52.264;9.632;2023-02-27T21:44:36;1.00;99.90
15095;DHT22;7648;52.264;9.632;2023-02-27T21:48:39;1.00;99.90
15095;DHT22;7648;52.264;9.632;2023-02-27T21:52:42;1.00;99.90
15095;DHT22;7648;52.264;9.632;2023-02-27T21:56:45;1.00;99.90
15095;DHT22;7648;52.264;9.632;2023-02-27T22:00:48;1.00;99.90
15095;DHT22;7648;52.264;9.632;2023-02-27T22:04:51;1.00;99.90
15095;DHT22;7648;52.264;9.632;2023-02-27T22:08:54;1.00;99.90
15095;DHT22;7648;52.264;9.632;2023-02-27T22:12:56;1.00;99.90
15095;DHT22;7648;52.264;9.632;2023-02-27T22:16:58;1.00;99.90
15095;DHT22;7648;52.264;9.632;2023-02-27T22:21:02;1.00;99.90
15095;DHT22;7648;52.264;9.632;2023-02-27T22:25:07;1.00;99.90
15095;DHT22;7648;52.264;9.632;2023-02-27T22:29:09;1.00;99.90
15095;DHT22;7648;52.264;9.632;2023-02-27T22:33:11;1.00;99.90
15095;DHT22;7648;52.264;9.632;2023-02-27T22:37:14;1.00;99.90
15095;DHT22;7648;52.264;9.632;2023-02-27T22:41:24;1.00;99.90
15095;DHT22;7648;52.264;9.632;2023-02-27T22:45:26;1.00;99.90
15095;DHT22;7648;52.264;9.632;2023-02-27T22:49:28;1.00;99.90
15095;DHT22;7648;52.264;9.632;2023-02-27T22:53:31;1.00;99.90
15095;DHT22;7648;52.264;9.632;2023-02-27T22:57:37;1.00;99.90
15095;DHT22;7648;52.264;9.632;2023-02-27T23:01:39;1.00;99.90
15095;DHT22;7648;52.264;9.632;2023-02-27T23:05:44;1.00;99.90
15095;DHT22;7648;52.264;9.632;2023-02-27T23:09:47;1.00;99.90
15095;DHT22;7648;52.264;9.632;2023-02-27T23:13:49;1.00;99.90
15095;DHT22;7648;52.264;9.632;2023-02-27T23:17:51;1.00;99.90
15095;DHT22;7648;52.264;9.632;2023-02-27T23:21:53;0.90;99.90
15095;DHT22;7648;52.264;9.632;2023-02-27T23:25:58;1.00;99.90
15095;DHT22;7648;52.264;9.632;2023-02-27T23:30:00;0.90;99.90
15095;DHT22;7648;52.264;9.632;2023-02-27T23:34:02;0.90;99.90
15095;DHT22;7648;52.264;9.632;2023-02-27T23:38:05;0.90;99.90
15095;DHT22;7648;52.264;9.632;2023-02-27T23:42:08;0.80;99.90
15095;DHT22;7648;52.264;9.632;2023-02-27T23:46:11;0.80;99.90
15095;DHT22;7648;52.264;9.632;2023-02-27T23:50:14;0.70;99.90
15095;DHT22;7648;52.264;9.632;2023-02-27T23:54:15;0.60;99.90
15095;DHT22;7648;52.264;9.632;2023-02-27T23:58:19;0.60;99.90
